Time;durP1;ratioP1;P1;durP2;ratioP2;P2;SDS_P1;SDS_P2;PMS_P1;PMS_P2;Temp;Humidity;BMP_temperature;BMP_pressure;BME280_temperature;BME280_humidity;BME280_pressure;Samples;Min_cycle;Max_cycle;Signal;HPM_P1;HPM_P2
2023/10/09 00:01:27;;;;;;;10.27;4.63;;;;;;;17.70;69.30;96157.41;5034516;28;20205;-82
2023/10/09 00:03:54;;;;;;;15.00;4.97;;;;;;;17.70;69.12;96155.59;5032631;28;20206;-82
2023/10/09 00:06:30;;;;;;;11.85;4.60;;;;;;;17.67;69.39;96160.41;5034004;28;20218;-82
2023/10/09 00:08:56;;;;;;;11.55;4.75;;;;;;;17.67;69.23;96156.00;5033759;28;20205;-82
2023/10/09 00:11:29;;;;;;;9.25;4.68;;;;;;;17.59;69.89;96167.41;5034350;28;20210;-82
2023/10/09 00:13:58;;;;;;;10.40;4.55;;;;;;;17.61;69.59;96162.00;5034048;28;20672;-82
2023/10/09 00:16:34;;;;;;;10.25;4.68;;;;;;;17.58;69.76;96159.81;5035877;28;20268;-82
2023/10/09 00:19:14;;;;;;;10.98;4.45;;;;;;;17.53;69.96;96168.22;5028749;28;20304;-82
2023/10/09 00:21:41;;;;;;;12.50;4.53;;;;;;;17.51;70.22;96161.66;5037220;28;20209;-83
2023/10/09 00:24:13;;;;;;;16.02;4.95;;;;;;;17.51;70.07;96154.59;5050288;28;20198;-83
2023/10/09 00:26:44;;;;;;;11.60;4.68;;;;;;;17.57;69.83;96142.56;5057415;28;20222;-82
2023/10/09 00:29:15;;;;;;;13.50;4.57;;;;;;;17.58;69.52;96134.56;5056960;28;20301;-81
2023/10/09 00:31:49;;;;;;;13.52;4.47;;;;;;;17.63;69.30;96120.13;5057547;28;20252;-81
2023/10/09 00:34:19;;;;;;;14.75;4.63;;;;;;;17.63;69.30;96109.72;5049698;28;20292;-81
2023/10/09 00:36:50;;;;;;;17.38;4.30;;;;;;;17.67;68.79;96098.72;5036679;28;20206;-82
2023/10/09 00:39:30;;;;;;;12.88;5.25;;;;;;;17.69;68.78;96088.09;5037092;28;20222;-81
2023/10/09 00:41:58;;;;;;;13.35;4.78;;;;;;;17.68;68.41;96089.09;5027109;28;20229;-82
2023/10/09 00:44:37;;;;;;;16.30;5.05;;;;;;;17.70;68.43;96066.25;5016699;28;20203;-81
2023/10/09 00:47:10;;;;;;;12.45;4.50;;;;;;;17.69;67.93;96059.44;5028429;28;20218;-83
2023/10/09 00:49:41;;;;;;;11.38;4.85;;;;;;;17.67;68.01;96049.22;5035189;28;20706;-81
2023/10/09 00:52:21;;;;;;;10.50;4.55;;;;;;;17.69;67.63;96042.00;5035059;28;20314;-82
2023/10/09 00:54:51;;;;;;;9.93;4.60;;;;;;;17.70;67.34;96019.38;5036670;28;20204;-83
2023/10/09 00:57:24;;;;;;;12.13;4.70;;;;;;;17.72;66.95;96006.91;5036400;28;20202;-81
2023/10/09 00:59:59;;;;;;;12.52;4.35;;;;;;;17.74;66.46;95991.88;5037035;28;20427;-82
2023/10/09 01:02:35;;;;;;;16.25;4.50;;;;;;;17.77;66.02;95978.44;5037734;28;20221;-82
2023/10/09 01:05:11;;;;;;;13.85;4.80;;;;;;;17.78;65.87;95967.81;5037264;28;20216;-82
2023/10/09 01:07:39;;;;;;;16.48;4.82;;;;;;;17.80;65.73;95957.97;5036137;28;20205;-81
2023/10/09 01:10:35;;;;;;;17.95;4.50;;;;;;;17.81;65.36;95938.72;5035911;28;20277;-81
2023/10/09 01:12:55;;;;;;;17.17;4.85;;;;;;;17.84;65.19;95932.31;5036035;28;20269;-82
2023/10/09 01:15:36;;;;;;;11.95;4.20;;;;;;;17.83;65.42;95936.72;5035288;28;20194;-82
2023/10/09 01:18:07;;;;;;;10.35;3.97;;;;;;;17.82;65.17;95929.91;5036465;28;20233;-82
2023/10/09 01:20:41;;;;;;;10.55;4.03;;;;;;;17.84;65.03;95927.88;5037073;28;20219;-82
2023/10/09 01:23:10;;;;;;;13.07;4.20;;;;;;;17.84;65.11;95922.69;5039237;28;20204;-81
2023/10/09 01:25:43;;;;;;;9.93;3.92;;;;;;;17.83;65.10;95921.09;5040824;28;20232;-83
2023/10/09 01:28:10;;;;;;;14.23;4.43;;;;;;;17.84;64.82;95912.25;5039782;28;20245;-81
2023/10/09 01:30:41;;;;;;;15.00;4.38;;;;;;;17.85;64.62;95903.44;5040077;28;20229;-81
2023/10/09 01:33:12;;;;;;;14.88;4.63;;;;;;;17.85;64.77;95907.84;5039902;28;20217;-82
2023/10/09 01:35:47;;;;;;;9.20;4.30;;;;;;;17.84;64.94;95909.66;5040051;28;20209;-82
2023/10/09 01:38:15;;;;;;;13.10;4.90;;;;;;;17.86;64.95;95914.66;5040691;28;20216;-82
2023/10/09 01:40:43;;;;;;;13.40;4.22;;;;;;;17.87;64.82;95903.22;5039547;28;20705;-81
2023/10/09 01:43:10;;;;;;;14.70;4.93;;;;;;;17.86;64.80;95905.03;5036955;28;20199;-81
2023/10/09 01:45:41;;;;;;;13.30;3.97;;;;;;;17.85;64.87;95902.63;5024151;28;20219;-81
2023/10/09 01:48:09;;;;;;;19.38;4.47;;;;;;;17.85;64.79;95902.63;5020426;28;20254;-82
2023/10/09 01:50:36;;;;;;;9.65;4.25;;;;;;;17.84;65.19;95901.84;5019960;28;20292;-82
2023/10/09 01:53:05;;;;;;;15.43;4.40;;;;;;;17.86;64.86;95888.59;5019803;28;20214;-81
2023/10/09 01:55:37;;;;;;;14.15;4.45;;;;;;;17.86;65.00;95886.78;5027046;28;20222;-82
2023/10/09 01:58:07;;;;;;;12.23;4.35;;;;;;;17.90;64.83;95900.16;5039358;28;20210;-83
2023/10/09 02:00:41;;;;;;;12.90;4.18;;;;;;;17.91;64.92;95896.56;5039562;28;20260;-82
2023/10/09 02:03:15;;;;;;;11.20;4.55;;;;;;;17.89;64.93;95894.19;5040116;28;20197;-81
2023/10/09 02:05:42;;;;;;;14.55;4.55;;;;;;;17.90;65.07;95893.16;5038725;28;20246;-82
2023/10/09 02:08:12;;;;;;;11.95;4.95;;;;;;;17.88;65.23;95900.41;5038346;28;20209;-82
2023/10/09 02:10:44;;;;;;;12.90;4.20;;;;;;;17.88;65.41;95899.59;5037705;28;20236;-81
2023/10/09 02:13:10;;;;;;;14.32;4.25;;;;;;;17.90;65.29;95892.34;5038282;28;20256;-82
2023/10/09 02:15:45;;;;;;;14.27;4.45;;;;;;;17.91;65.41;95896.56;5037880;28;20213;-81
2023/10/09 02:18:19;;;;;;;14.18;4.88;;;;;;;17.91;65.75;95909.56;5038349;28;20202;-81
2023/10/09 02:20:46;;;;;;;11.25;4.28;;;;;;;17.92;65.62;95898.16;5038764;28;20226;-82
2023/10/09 02:23:14;;;;;;;10.00;4.18;;;;;;;17.91;65.58;95896.56;5042958;28;20216;-81
2023/10/09 02:25:43;;;;;;;11.10;3.75;;;;;;;17.88;65.68;95895.19;5058083;28;20225;-82
2023/10/09 02:28:17;;;;;;;13.13;4.45;;;;;;;17.92;65.60;95898.16;5044452;28;20201;-81
2023/10/09 02:30:47;;;;;;;18.67;4.40;;;;;;;17.96;65.48;95888.91;5037425;28;20226;-80
2023/10/09 02:33:18;;;;;;;15.07;4.70;;;;;;;17.98;65.32;95881.66;5037253;28;20233;-81
2023/10/09 02:35:45;;;;;;;15.50;4.45;;;;;;;17.98;65.53;95892.09;5038172;28;20198;-81
2023/10/09 02:38:14;;;;;;;17.02;4.22;;;;;;;17.99;65.34;95887.66;5036599;28;20199;-80
2023/10/09 02:41:00;;;;;;;13.38;4.35;;;;;;;17.94;65.42;95894.31;5029057;28;20264;-82
2023/10/09 02:43:30;;;;;;;17.98;5.18;;;;;;;17.94;65.68;95896.13;5025578;28;20202;-81
2023/10/09 02:45:57;;;;;;;15.18;4.68;;;;;;;17.95;65.74;95895.13;5037141;28;20308;-82
2023/10/09 02:48:26;;;;;;;9.85;3.70;;;;;;;17.93;65.74;95890.13;5038245;28;20224;-81
2023/10/09 02:50:54;;;;;;;13.45;4.03;;;;;;;17.97;65.56;95887.09;5038446;28;20222;-82
2023/10/09 02:53:29;;;;;;;12.63;3.80;;;;;;;17.91;66.02;95893.94;5036877;28;20266;-82
2023/10/09 02:56:12;;;;;;;14.23;4.70;;;;;;;17.91;65.85;95884.31;5037731;28;20271;-81
2023/10/09 02:58:39;;;;;;;11.50;4.65;;;;;;;17.89;66.00;95896.00;5038395;28;20695;-81
2023/10/09 03:01:10;;;;;;;16.98;4.85;;;;;;;17.89;66.01;95888.19;5036496;28;20237;-82
2023/10/09 03:03:38;;;;;;;12.32;4.55;;;;;;;17.84;66.07;95885.41;5037991;28;20209;-82
2023/10/09 03:06:10;;;;;;;15.82;4.30;;;;;;;17.86;65.99;95884.19;5038312;28;20260;-82
2023/10/09 03:08:37;;;;;;;21.40;5.03;;;;;;;17.89;65.65;95877.75;5037756;28;20245;-81
2023/10/09 03:11:06;;;;;;;15.10;4.50;;;;;;;17.88;65.66;95865.75;5037806;28;20753;-81
2023/10/09 03:13:33;;;;;;;13.77;4.15;;;;;;;17.93;65.46;95863.25;5037236;28;20214;-82
2023/10/09 03:16:02;;;;;;;12.48;4.18;;;;;;;17.96;65.29;95862.84;5035088;28;20256;-82
2023/10/09 03:18:28;;;;;;;14.50;4.88;;;;;;;17.94;65.32;95857.84;5036789;28;20201;-82
2023/10/09 03:20:55;;;;;;;11.38;4.22;;;;;;;17.95;64.98;95840.41;5036658;28;20233;-81
2023/10/09 03:23:22;;;;;;;12.18;3.92;;;;;;;17.97;64.87;95834.97;5041797;28;20204;-82
2023/10/09 03:25:49;;;;;;;10.05;4.13;;;;;;;18.00;64.68;95818.91;5055945;28;20202;-82
2023/10/09 03:28:17;;;;;;;15.82;4.47;;;;;;;17.93;64.45;95814.56;5057398;28;20331;-82
2023/10/09 03:30:46;;;;;;;10.60;4.03;;;;;;;17.94;64.49;95800.53;5056253;28;20225;-81
2023/10/09 03:33:14;;;;;;;13.45;4.60;;;;;;;17.92;64.40;95796.53;5034319;28;20206;-82
2023/10/09 03:35:41;;;;;;;12.45;3.90;;;;;;;17.93;64.10;95787.72;5028421;28;20234;-82
2023/10/09 03:38:13;;;;;;;11.82;3.97;;;;;;;17.96;64.17;95795.09;5034885;28;20206;-81
2023/10/09 03:40:42;;;;;;;9.07;3.88;;;;;;;17.98;64.25;95790.47;5035903;28;20292;-81
2023/10/09 03:43:10;;;;;;;12.02;4.75;;;;;;;17.94;64.14;95790.09;5024154;28;20218;-81
2023/10/09 03:45:45;;;;;;;13.32;3.90;;;;;;;17.90;64.01;95786.34;5035143;28;20209;-82
2023/10/09 03:48:26;;;;;;;10.48;3.85;;;;;;;17.95;63.94;95790.91;5033826;28;20301;-82
2023/10/09 03:51:08;;;;;;;13.82;4.40;;;;;;;18.01;63.96;95795.25;5036828;28;20424;-83
2023/10/09 03:53:36;;;;;;;12.18;4.00;;;;;;;18.01;63.91;95790.03;5037783;28;20285;-81
2023/10/09 03:56:05;;;;;;;12.50;3.88;;;;;;;18.03;63.97;95784.63;5034962;28;20765;-81
2023/10/09 03:58:33;;;;;;;13.80;3.88;;;;;;;18.01;64.09;95794.47;5040625;28;20190;-81
2023/10/09 04:01:02;;;;;;;9.55;3.50;;;;;;;17.97;64.02;95788.88;5040841;28;20242;-82
2023/10/09 04:03:28;;;;;;;9.57;4.18;;;;;;;18.00;64.13;95792.88;5036986;28;20630;-81
2023/10/09 04:05:56;;;;;;;15.80;3.65;;;;;;;17.98;64.21;95794.88;5037231;28;20683;-81
2023/10/09 04:08:28;;;;;;;10.43;4.07;;;;;;;17.97;64.14;95804.50;5038005;28;20205;-81
2023/10/09 04:11:01;;;;;;;8.73;3.90;;;;;;;17.91;64.41;95807.97;5033932;28;20218;-82
2023/10/09 04:13:33;;;;;;;10.00;3.83;;;;;;;17.88;65.09;95840.50;5035408;28;20267;-81
2023/10/09 04:16:09;;;;;;;10.02;3.75;;;;;;;17.80;65.78;95852.97;5037384;28;20213;-82
2023/10/09 04:18:38;;;;;;;14.50;4.72;;;;;;;17.78;65.89;95875.84;5038477;28;20233;-82
2023/10/09 04:21:18;;;;;;;10.75;3.65;;;;;;;17.72;66.35;95876.69;5037457;28;20729;-81
2023/10/09 04:24:09;;;;;;;9.35;3.72;;;;;;;17.72;66.55;95884.50;5047475;28;20201;-82
2023/10/09 04:26:37;;;;;;;14.60;4.53;;;;;;;17.74;66.54;95880.66;5038588;28;20223;-82
2023/10/09 04:29:03;;;;;;;16.48;3.53;;;;;;;17.71;66.96;95888.91;5027368;28;20648;-81
2023/10/09 04:31:37;;;;;;;16.75;4.43;;;;;;;17.69;66.97;95895.38;5029818;28;20209;-82
2023/10/09 04:36:49;;;;;;;14.05;3.95;;;;;;;17.70;67.10;95894.34;5029207;28;20279;-81
2023/10/09 04:39:35;;;;;;;10.00;4.03;;;;;;;17.71;67.16;95906.34;5027865;28;20386;-82
2023/10/09 04:42:26;;;;;;;14.95;4.07;;;;;;;17.77;66.83;95897.69;5027440;28;20199;-82
2023/10/09 04:47:57;;;;;;;8.60;3.92;;;;;;;17.80;67.13;95892.06;5006230;28;20738;-81
2023/10/09 04:53:23;;;;;;;11.30;3.65;;;;;;;17.78;66.96;95888.88;5018480;28;20725;-82
2023/10/09 04:55:54;;;;;;;17.67;3.90;;;;;;;17.75;67.24;95900.50;5038030;28;20205;-80
2023/10/09 04:58:25;;;;;;;11.50;3.58;;;;;;;17.74;67.13;95891.09;5038472;28;20194;-83
2023/10/09 05:01:04;;;;;;;11.43;4.15;;;;;;;17.76;67.30;95901.28;5037297;28;20238;-82
2023/10/09 05:03:43;;;;;;;16.55;4.15;;;;;;;17.81;67.31;95906.69;5036626;28;20230;-81
2023/10/09 05:06:21;;;;;;;16.00;4.63;;;;;;;17.81;67.50;95919.69;5037706;28;20198;-79
2023/10/09 05:08:48;;;;;;;11.82;3.67;;;;;;;17.79;67.57;95911.28;5035847;28;20201;-80
2023/10/09 05:14:11;;;;;;;13.10;3.50;;;;;;;17.76;67.47;95917.72;5036499;28;20256;-81
2023/10/09 05:16:37;;;;;;;12.77;4.10;;;;;;;17.69;68.08;95937.84;5037006;28;20204;-81
2023/10/09 05:19:06;;;;;;;12.52;4.45;;;;;;;17.68;68.28;95951.06;5036532;28;20202;-81
2023/10/09 05:21:44;;;;;;;12.45;4.82;;;;;;;17.66;68.43;95953.06;5036454;28;20205;-81
2023/10/09 05:24:18;;;;;;;9.48;3.85;;;;;;;17.67;68.45;95952.88;5047396;28;20213;-81
2023/10/09 05:26:51;;;;;;;13.10;4.18;;;;;;;17.66;68.51;95953.88;5035428;28;20232;-81
2023/10/09 05:29:34;;;;;;;12.25;4.18;;;;;;;17.65;68.62;95962.69;5027750;28;20280;-81
2023/10/09 05:32:04;;;;;;;12.07;4.50;;;;;;;17.60;68.71;95978.91;5016859;28;20209;-81
2023/10/09 05:35:04;;;;;;;13.65;4.15;;;;;;;17.58;68.94;95980.94;5016593;28;20204;-81
2023/10/09 05:37:22;;;;;;;21.35;15.60;;;;;;;17.50;69.38;95993.41;5028180;28;20228;-81
2023/10/09 05:40:10;;;;;;;14.05;6.63;;;;;;;17.47;69.44;96002.44;5036777;28;20264;-81
2023/10/09 05:42:42;;;;;;;9.95;4.05;;;;;;;17.40;70.06;96021.69;5033964;28;20261;-79
2023/10/09 05:47:56;;;;;;;10.07;4.35;;;;;;;17.20;71.80;96060.81;5035666;28;20237;-82
2023/10/09 05:50:34;;;;;;;10.27;4.22;;;;;;;17.20;71.49;96056.41;5036152;28;20305;-81
2023/10/09 05:53:07;;;;;;;12.15;4.80;;;;;;;17.21;71.35;96055.41;5050403;28;20220;-80
2023/10/09 05:57:08;;;;;;;14.88;4.85;;;;;;;17.11;72.98;96075.88;5056230;28;20213;-82
2023/10/09 06:04:15;;;;;;;41.10;30.63;;;;;;;17.13;72.20;96055.63;5042109;28;20204;-82
2023/10/09 06:06:46;;;;;;;22.13;12.50;;;;;;;17.18;71.76;96058.41;5037645;28;20597;-81
2023/10/09 06:09:49;;;;;;;12.93;5.53;;;;;;;17.25;71.49;96051.41;5037192;28;20222;-81
2023/10/09 06:15:18;;;;;;;15.93;4.40;;;;;;;17.43;71.11;96045.50;5040056;28;20209;-82
2023/10/09 06:17:44;;;;;;;13.15;4.18;;;;;;;17.65;70.52;96032.22;5039479;28;20758;-82
2023/10/09 06:23:01;;;;;;;14.70;5.18;;;;;;;17.83;69.05;95994.03;5036366;28;20198;-81
2023/10/09 06:25:33;;;;;;;13.32;4.32;;;;;;;17.93;68.62;95981.31;5029869;28;20228;-81
2023/10/09 06:28:01;;;;;;;13.00;4.50;;;;;;;18.01;67.89;95962.00;5020627;28;20215;-81
2023/10/09 06:30:27;;;;;;;15.30;4.70;;;;;;;18.01;67.13;95933.34;5034302;28;20237;-81
2023/10/09 06:33:19;;;;;;;18.38;4.72;;;;;;;18.01;66.72;95916.91;5038515;28;20210;-81
2023/10/09 06:35:53;;;;;;;13.30;4.22;;;;;;;18.03;65.95;95892.25;5037769;28;20202;-81
2023/10/09 06:38:40;;;;;;;17.95;4.63;;;;;;;18.10;65.69;95887.75;5038502;28;20228;-81
2023/10/09 06:41:34;;;;;;;14.88;4.07;;;;;;;18.12;65.30;95866.69;5035480;28;20219;-82
2023/10/09 06:44:05;;;;;;;14.00;4.55;;;;;;;18.09;64.69;95847.06;5020517;28;20199;-82
2023/10/09 06:46:44;;;;;;;15.90;4.55;;;;;;;18.06;64.01;95821.47;5031492;28;20749;-80
2023/10/09 06:49:28;;;;;;;14.98;4.60;;;;;;;18.06;63.92;95818.84;5038003;28;20214;-80
2023/10/09 06:52:13;;;;;;;16.52;4.35;;;;;;;18.04;63.82;95807.84;5037779;28;20296;-82
2023/10/09 06:54:49;;;;;;;14.93;4.63;;;;;;;18.14;63.57;95808.13;5037578;28;20202;-81
2023/10/09 06:57:43;;;;;;;12.43;4.32;;;;;;;18.19;63.22;95794.44;5038150;28;20201;-82
2023/10/09 07:02:47;;;;;;;11.57;3.85;;;;;;;18.27;62.77;95781.94;5035848;28;20252;-82
2023/10/09 07:05:17;;;;;;;14.30;3.92;;;;;;;18.31;62.66;95771.81;5057861;22;20225;-86
2023/10/09 07:07:54;;;;;;;18.42;7.18;;;;;;;18.34;62.19;95762.78;5055327;28;20217;-86
2023/10/09 07:10:32;;;;;;;14.65;4.65;;;;;;;18.41;62.27;95771.31;5053980;28;20197;-86
2023/10/09 07:12:59;;;;;;;17.73;3.70;;;;;;;18.50;61.95;95759.56;5055396;28;20205;-87
2023/10/09 07:18:40;;;;;;;16.52;4.55;;;;;;;18.70;61.22;95739.25;5031404;28;20704;-86
2023/10/09 07:21:11;;;;;;;13.52;4.15;;;;;;;18.77;61.16;95742.56;5030386;28;20211;-86
2023/10/09 07:23:48;;;;;;;12.18;3.67;;;;;;;18.84;60.69;95719.78;5037220;28;20261;-88
2023/10/09 07:26:18;;;;;;;10.80;3.80;;;;;;;18.94;60.20;95711.38;5052485;28;20264;-86
2023/10/09 07:28:48;;;;;;;17.17;3.92;;;;;;;18.94;59.91;95686.09;5019221;28;20273;-86
2023/10/09 07:31:39;;;;;;;12.13;3.60;;;;;;;19.15;59.35;95668.28;5037447;28;20200;-87
2023/10/09 07:34:30;;;;;;;15.10;3.70;;;;;;;19.21;58.45;95631.63;5035727;28;20202;-86
2023/10/09 07:36:56;;;;;;;12.90;4.18;;;;;;;19.32;58.33;95628.19;5034200;28;20198;-86
2023/10/09 07:39:23;;;;;;;21.77;4.25;;;;;;;19.57;57.68;95614.09;5034267;28;20202;-86
2023/10/09 07:42:01;;;;;;;15.85;3.80;;;;;;;20.19;55.81;95539.16;5029524;28;20187;-85
2023/10/09 07:44:42;;;;;;;14.52;3.65;;;;;;;20.53;54.62;95479.00;5017632;28;20672;-83
2023/10/09 07:47:18;;;;;;;16.00;3.50;;;;;;;20.64;54.99;95486.72;5025586;28;20218;-84
2023/10/09 07:49:48;;;;;;;12.75;4.28;;;;;;;20.69;54.95;95488.63;5036880;28;20237;-85
2023/10/09 07:52:16;;;;;;;11.52;3.53;;;;;;;20.69;54.25;95462.47;5038932;28;20302;-85
2023/10/09 07:54:49;;;;;;;15.48;4.03;;;;;;;20.63;54.19;95424.19;5040052;28;20231;-85
2023/10/09 07:57:25;;;;;;;15.30;3.88;;;;;;;20.58;53.87;95422.31;5039701;28;20267;-84
2023/10/09 08:00:11;;;;;;;15.20;4.28;;;;;;;20.58;53.79;95427.56;5039277;28;20281;-84
2023/10/09 08:02:38;;;;;;;11.93;3.58;;;;;;;20.53;53.52;95411.78;5040371;28;20694;-83
2023/10/09 08:05:06;;;;;;;11.63;3.28;;;;;;;20.58;54.03;95424.94;5038994;28;20584;-84
2023/10/09 08:07:37;;;;;;;13.45;3.10;;;;;;;20.60;53.66;95412.38;5038296;28;20257;-84
2023/10/09 08:13:49;;;;;;;13.50;3.78;;;;;;;20.67;52.75;95383.41;5040184;28;20205;-82
2023/10/09 08:15:51;;;;;;;11.82;3.55;;;;;;;20.64;52.78;95381.28;5039643;28;20226;-84
2023/10/09 08:18:31;;;;;;;16.63;3.25;;;;;;;20.70;52.95;95398.63;5025300;28;20202;-83
2023/10/09 08:21:41;;;;;;;13.23;3.55;;;;;;;20.72;52.99;95406.25;5033809;28;20190;-82
2023/10/09 08:24:35;;;;;;;12.75;3.35;;;;;;;20.82;52.99;95420.22;5036889;28;20210;-85
2023/10/09 08:27:37;;;;;;;15.43;4.60;;;;;;;20.87;52.23;95352.25;5038623;28;20702;-84
2023/10/09 08:30:28;;;;;;;10.68;3.92;;;;;;;20.98;51.99;95347.88;5038851;28;20198;-82
2023/10/09 08:33:02;;;;;;;11.88;3.58;;;;;;;21.07;51.83;95345.63;5039233;28;20264;-83
2023/10/09 08:35:29;;;;;;;14.82;3.40;;;;;;;21.13;52.14;95373.44;5039506;28;20237;-83
2023/10/09 08:37:58;;;;;;;12.65;3.65;;;;;;;21.22;51.78;95348.41;5039809;28;20198;-82
2023/10/09 08:40:33;;;;;;;14.32;3.55;;;;;;;21.30;51.70;95342.72;5039313;28;20202;-84
2023/10/09 08:43:10;;;;;;;12.02;3.03;;;;;;;21.41;51.43;95344.38;5020588;28;20229;-82
2023/10/09 08:45:44;;;;;;;14.90;3.30;;;;;;;21.42;51.78;95345.19;5021135;28;20223;-83
2023/10/09 08:48:16;;;;;;;18.52;4.00;;;;;;;21.45;51.93;95368.25;5036676;28;20222;-82
2023/10/09 08:50:43;;;;;;;13.50;3.80;;;;;;;21.41;51.50;95360.09;5039607;28;20852;-82
2023/10/09 08:53:11;;;;;;;17.38;5.65;;;;;;;21.36;51.61;95346.94;5040237;28;20224;-83
2023/10/09 08:55:41;;;;;;;10.05;4.10;;;;;;;21.40;52.09;95360.34;5038648;28;20218;-84
2023/10/09 08:58:15;;;;;;;13.40;3.60;;;;;;;21.36;51.62;95355.59;5040027;28;20213;-84
2023/10/09 09:00:46;;;;;;;14.80;3.60;;;;;;;21.35;51.65;95361.13;5040176;28;20216;-85
2023/10/09 09:03:15;;;;;;;12.82;3.60;;;;;;;21.34;51.92;95356.91;5039540;28;20201;-84
2023/10/09 09:05:49;;;;;;;13.43;3.78;;;;;;;21.33;51.16;95327.31;5039347;28;20234;-84
2023/10/09 09:08:28;;;;;;;12.52;3.55;;;;;;;21.36;51.37;95349.56;5039137;28;20218;-84
2023/10/09 09:11:11;;;;;;;13.52;3.72;;;;;;;21.43;51.85;95365.09;5036662;28;20194;-84
2023/10/09 09:13:48;;;;;;;12.80;3.60;;;;;;;21.49;51.71;95370.13;5034567;28;20202;-84
2023/10/09 09:16:20;;;;;;;16.52;3.72;;;;;;;21.50;50.75;95313.28;5038692;28;20221;-84
2023/10/09 09:19:00;;;;;;;11.82;4.05;;;;;;;21.51;50.59;95305.19;5036099;28;20206;-84
2023/10/09 09:21:28;;;;;;;11.90;3.47;;;;;;;21.55;50.24;95297.63;5037452;28;20202;-84
2023/10/09 09:24:03;;;;;;;13.95;3.78;;;;;;;21.56;50.33;95280.81;5050615;28;20208;-84
2023/10/09 09:26:44;;;;;;;12.50;3.50;;;;;;;21.57;49.91;95271.94;5054927;28;20316;-84
2023/10/09 09:29:11;;;;;;;11.43;3.20;;;;;;;21.64;50.46;95299.50;5040022;28;20276;-82
2023/10/09 09:31:41;;;;;;;12.48;3.80;;;;;;;21.64;50.09;95280.38;5041098;28;20190;-83
2023/10/09 09:34:16;;;;;;;17.52;3.25;;;;;;;21.65;49.49;95259.16;5039539;28;20617;-84
2023/10/09 09:36:56;;;;;;;8.98;3.47;;;;;;;21.68;49.70;95268.34;5039879;28;20194;-82
2023/10/09 09:39:27;;;;;;;17.10;3.60;;;;;;;21.77;49.91;95255.53;5039864;28;20237;-83
2023/10/09 09:42:05;;;;;;;10.65;3.45;;;;;;;21.84;49.24;95259.50;5028407;28;20230;-84
2023/10/09 09:44:33;;;;;;;9.80;3.33;;;;;;;21.86;49.78;95267.13;5035930;28;20229;-84
2023/10/09 09:47:06;;;;;;;11.88;3.72;;;;;;;21.85;49.64;95268.94;5037656;28;20256;-84
2023/10/09 09:49:33;;;;;;;16.50;3.58;;;;;;;21.75;49.29;95226.94;5036575;28;20224;-82
2023/10/09 09:52:09;;;;;;;10.55;3.22;;;;;;;21.77;49.28;95237.19;5037139;28;20212;-82
2023/10/09 09:54:37;;;;;;;19.70;3.80;;;;;;;21.82;49.46;95266.03;5036600;28;20240;-83
2023/10/09 09:57:08;;;;;;;11.15;3.45;;;;;;;21.85;49.53;95284.69;5035886;28;20668;-82
2023/10/09 09:59:41;;;;;;;16.67;3.67;;;;;;;21.88;49.65;95286.00;5035647;28;20198;-83
2023/10/09 10:02:20;;;;;;;15.30;3.45;;;;;;;21.86;49.55;95282.84;5038882;28;20210;-84
2023/10/09 10:04:49;;;;;;;13.77;3.67;;;;;;;21.89;49.68;95293.63;5037477;28;20233;-83
2023/10/09 10:07:17;;;;;;;11.55;3.70;;;;;;;21.88;49.34;95267.66;5037219;28;20202;-82
2023/10/09 10:09:44;;;;;;;9.55;3.70;;;;;;;21.86;48.94;95249.56;5028490;28;20189;-84
2023/10/09 10:12:12;;;;;;;18.05;3.92;;;;;;;21.87;48.60;95245.91;5030642;28;20293;-84
2023/10/09 10:15:08;;;;;;;12.68;3.67;;;;;;;21.95;48.89;95244.59;5034351;28;20244;-84
2023/10/09 10:18:09;;;;;;;13.63;3.70;;;;;;;21.99;48.55;95238.59;5027934;28;20213;-87
2023/10/09 10:21:15;;;;;;;9.82;3.25;;;;;;;22.18;48.71;95257.31;5033649;28;20264;-85
2023/10/09 10:23:46;;;;;;;16.45;3.92;;;;;;;22.33;48.49;95246.09;5044198;28;20197;-85
2023/10/09 10:26:26;;;;;;;14.90;3.85;;;;;;;22.42;48.03;95239.31;5052516;28;20232;-86
2023/10/09 10:29:22;;;;;;;10.68;3.25;;;;;;;22.52;47.75;95207.81;5047787;28;20258;-83
2023/10/09 10:31:56;;;;;;;20.10;4.25;;;;;;;22.60;47.89;95206.53;5019968;28;20662;-83
2023/10/09 10:34:24;;;;;;;13.40;3.60;;;;;;;22.70;47.70;95217.84;5030675;28;20607;-82
2023/10/09 10:36:52;;;;;;;14.63;4.13;;;;;;;22.76;47.73;95205.50;5031556;28;20205;-82
2023/10/09 10:39:23;;;;;;;18.65;5.70;;;;;;;22.81;47.45;95189.78;5031620;28;20208;-83
2023/10/09 10:41:57;;;;;;;12.32;4.47;;;;;;;22.79;46.63;95160.38;5022279;28;20198;-84
2023/10/09 10:44:37;;;;;;;13.88;3.80;;;;;;;22.71;46.44;95130.16;5012860;28;20226;-84
2023/10/09 10:47:05;;;;;;;12.82;3.80;;;;;;;22.72;46.61;95142.22;5012100;28;20237;-84
2023/10/09 10:49:37;;;;;;;11.23;3.97;;;;;;;22.67;45.58;95062.72;5029477;28;20256;-83
2023/10/09 10:52:15;;;;;;;13.77;4.25;;;;;;;22.67;45.81;95067.97;5029699;28;20202;-85
2023/10/09 10:55:05;;;;;;;16.98;4.00;;;;;;;22.71;45.74;95063.75;5028660;28;20291;-84
2023/10/09 10:57:53;;;;;;;14.43;4.55;;;;;;;22.76;45.34;95063.75;5028428;28;20209;-86
2023/10/09 11:03:13;;;;;;;18.15;3.90;;;;;;;22.80;44.74;95041.19;5008958;28;20575;-85
2023/10/09 11:05:42;;;;;;;18.10;3.65;;;;;;;22.87;45.17;95036.47;5027838;28;20225;-85
2023/10/09 11:08:11;;;;;;;12.50;4.32;;;;;;;22.98;44.70;95047.72;5028879;28;20225;-86
2023/10/09 11:10:49;;;;;;;15.70;4.45;;;;;;;23.03;44.63;95022.25;5029112;28;20194;-85
2023/10/09 11:13:35;;;;;;;17.33;4.35;;;;;;;23.14;44.68;95033.47;5009630;28;20269;-82
2023/10/09 11:16:28;;;;;;;17.00;4.55;;;;;;;23.19;44.50;95011.66;5014023;28;20245;-83
2023/10/09 11:18:57;;;;;;;18.30;4.20;;;;;;;23.35;44.04;95002.66;5028702;28;20663;-83
2023/10/09 11:24:33;;;;;;;19.73;4.75;;;;;;;23.76;43.16;94961.97;5031970;28;20270;-83
2023/10/09 11:27:05;;;;;;;18.52;8.00;;;;;;;23.99;42.75;94938.66;5029227;28;20206;-83
2023/10/09 11:29:52;;;;;;;20.17;4.68;;;;;;;24.07;42.22;94886.22;5028991;28;20295;-83
2023/10/09 11:32:22;;;;;;;20.70;4.45;;;;;;;24.15;41.74;94858.53;5029635;28;20213;-84
2023/10/09 11:34:51;;;;;;;17.15;4.68;;;;;;;23.98;40.94;94824.00;5026937;28;20221;-83
2023/10/09 11:37:38;;;;;;;18.83;4.60;;;;;;;23.92;40.49;94801.44;5023428;28;20195;-83
2023/10/09 11:40:21;;;;;;;14.80;4.35;;;;;;;23.93;40.67;94803.00;5018108;28;20198;-83
2023/10/09 11:42:50;;;;;;;19.48;5.20;;;;;;;24.09;40.91;94823.59;5022859;28;20190;-83
2023/10/09 11:45:24;;;;;;;22.13;4.28;;;;;;;24.26;40.97;94817.91;5009196;28;20711;-84
2023/10/09 11:47:57;;;;;;;20.48;4.78;;;;;;;24.40;40.61;94813.56;5018083;28;20208;-83
2023/10/09 11:50:51;;;;;;;20.75;5.13;;;;;;;24.34;39.91;94784.94;5028901;28;20197;-83
2023/10/09 11:53:33;;;;;;;22.27;5.07;;;;;;;24.08;40.48;94771.28;5027285;28;20230;-83
2023/10/09 11:56:00;;;;;;;19.60;4.95;;;;;;;23.92;40.12;94783.81;5028423;28;20308;-83
2023/10/09 11:58:26;;;;;;;18.58;5.18;;;;;;;23.76;40.12;94766.63;5029101;28;20197;-83
2023/10/09 12:00:56;;;;;;;20.90;5.88;;;;;;;23.68;40.19;94773.28;5028045;28;20217;-83
2023/10/09 12:03:28;;;;;;;23.33;10.10;;;;;;;23.70;40.83;94815.84;5021860;28;20680;-83
2023/10/09 12:05:56;;;;;;;17.80;5.38;;;;;;;23.67;41.41;94834.78;5028238;28;20226;-83
2023/10/09 12:08:26;;;;;;;16.38;5.28;;;;;;;23.67;41.05;94828.75;5027923;28;20222;-84
2023/10/09 12:10:54;;;;;;;19.60;5.18;;;;;;;23.65;41.36;94859.81;5029073;28;20607;-83
2023/10/09 12:13:22;;;;;;;25.35;5.88;;;;;;;23.56;41.48;94853.56;5032303;28;20625;-84
2023/10/09 12:15:48;;;;;;;23.13;4.65;;;;;;;23.47;41.74;94871.75;5032527;28;20234;-83
2023/10/09 12:18:15;;;;;;;18.67;4.65;;;;;;;23.39;41.28;94817.94;5032694;28;20202;-82
2023/10/09 12:20:49;;;;;;;22.63;5.03;;;;;;;23.37;41.17;94827.16;5031883;28;20222;-83
2023/10/09 12:23:16;;;;;;;16.13;4.75;;;;;;;23.27;41.19;94811.47;5037931;28;20200;-84
2023/10/09 12:25:45;;;;;;;17.65;4.45;;;;;;;23.23;40.92;94797.31;5032839;28;20217;-83
2023/10/09 12:28:13;;;;;;;22.45;4.43;;;;;;;23.18;40.92;94790.25;5030642;28;20715;-83
2023/10/09 12:30:40;;;;;;;14.23;4.28;;;;;;;23.14;41.02;94806.81;5032672;28;20194;-83
2023/10/09 12:33:08;;;;;;;17.98;4.88;;;;;;;23.06;40.98;94813.47;5031239;28;20202;-83
2023/10/09 12:35:38;;;;;;;16.58;4.72;;;;;;;23.06;41.66;94842.34;5031729;28;20225;-83
2023/10/09 12:38:08;;;;;;;18.75;5.03;;;;;;;23.00;42.26;94872.31;5032112;28;20205;-84